sensor_id;sensor_type;location;lat;lon;timestamp;P1;durP1;ratioP1;P2;durP2;ratioP2
78989;SDS011;68390;52.130;21.218;2024-02-23T00:01:03;14.93;;;8.60;;
78989;SDS011;68390;52.130;21.218;2024-02-23T00:03:28;12.65;;;8.50;;
78989;SDS011;68390;52.130;21.218;2024-02-23T00:05:53;10.82;;;8.07;;
78989;SDS011;68390;52.130;21.218;2024-02-23T00:08:19;11.38;;;8.18;;
78989;SDS011;68390;52.130;21.218;2024-02-23T00:10:44;14.65;;;8.63;;
78989;SDS011;68390;52.130;21.218;2024-02-23T00:13:10;10.60;;;7.65;;
78989;SDS011;68390;52.130;21.218;2024-02-23T00:15:35;11.73;;;7.85;;
78989;SDS011;68390;52.130;21.218;2024-02-23T00:18:00;11.00;;;8.55;;
78989;SDS011;68390;52.130;21.218;2024-02-23T00:20:28;11.50;;;7.47;;
78989;SDS011;68390;52.130;21.218;2024-02-23T00:22:53;11.68;;;8.93;;
78989;SDS011;68390;52.130;21.218;2024-02-23T00:25:19;10.85;;;7.68;;
78989;SDS011;68390;52.130;21.218;2024-02-23T00:27:44;12.85;;;8.07;;
78989;SDS011;68390;52.130;21.218;2024-02-23T00:30:11;12.48;;;8.65;;
78989;SDS011;68390;52.130;21.218;2024-02-23T00:32:38;12.50;;;7.07;;
78989;SDS011;68390;52.130;21.218;2024-02-23T00:35:03;12.05;;;8.20;;
78989;SDS011;68390;52.130;21.218;2024-02-23T00:37:29;11.27;;;7.57;;
78989;SDS011;68390;52.130;21.218;2024-02-23T00:40:01;11.65;;;8.52;;
78989;SDS011;68390;52.130;21.218;2024-02-23T00:42:29;10.50;;;7.93;;
78989;SDS011;68390;52.130;21.218;2024-02-23T00:44:55;12.18;;;8.20;;
78989;SDS011;68390;52.130;21.218;2024-02-23T00:47:20;11.07;;;7.95;;
78989;SDS011;68390;52.130;21.218;2024-02-23T00:49:45;12.32;;;8.05;;
78989;SDS011;68390;52.130;21.218;2024-02-23T00:52:11;12.23;;;7.70;;
78989;SDS011;68390;52.130;21.218;2024-02-23T00:54:36;10.75;;;7.40;;
78989;SDS011;68390;52.130;21.218;2024-02-23T00:57:01;11.35;;;7.28;;
78989;SDS011;68390;52.130;21.218;2024-02-23T00:59:27;11.73;;;8.10;;
78989;SDS011;68390;52.130;21.218;2024-02-23T01:01:53;10.57;;;7.28;;
78989;SDS011;68390;52.130;21.218;2024-02-23T01:04:19;10.25;;;6.88;;
78989;SDS011;68390;52.130;21.218;2024-02-23T01:06:44;10.52;;;7.70;;
78989;SDS011;68390;52.130;21.218;2024-02-23T01:09:10;11.13;;;7.72;;
78989;SDS011;68390;52.130;21.218;2024-02-23T01:11:35;10.68;;;7.13;;
78989;SDS011;68390;52.130;21.218;2024-02-23T01:14:00;10.95;;;7.88;;
78989;SDS011;68390;52.130;21.218;2024-02-23T01:16:26;9.93;;;7.00;;
78989;SDS011;68390;52.130;21.218;2024-02-23T01:18:51;12.32;;;7.53;;
78989;SDS011;68390;52.130;21.218;2024-02-23T01:21:17;8.85;;;6.90;;
78989;SDS011;68390;52.130;21.218;2024-02-23T01:23:42;9.80;;;7.05;;
78989;SDS011;68390;52.130;21.218;2024-02-23T01:26:07;10.90;;;7.38;;
78989;SDS011;68390;52.130;21.218;2024-02-23T01:28:33;11.13;;;7.80;;
78989;SDS011;68390;52.130;21.218;2024-02-23T01:30:58;13.38;;;7.28;;
78989;SDS011;68390;52.130;21.218;2024-02-23T01:33:24;12.40;;;7.63;;
78989;SDS011;68390;52.130;21.218;2024-02-23T01:35:49;12.10;;;8.32;;
78989;SDS011;68390;52.130;21.218;2024-02-23T01:38:16;10.95;;;7.28;;
78989;SDS011;68390;52.130;21.218;2024-02-23T01:40:45;10.98;;;7.05;;
78989;SDS011;68390;52.130;21.218;2024-02-23T01:43:12;9.85;;;6.65;;
78989;SDS011;68390;52.130;21.218;2024-02-23T01:45:37;9.48;;;6.60;;
78989;SDS011;68390;52.130;21.218;2024-02-23T01:48:03;8.77;;;6.72;;
78989;SDS011;68390;52.130;21.218;2024-02-23T01:50:29;9.80;;;6.90;;
78989;SDS011;68390;52.130;21.218;2024-02-23T01:52:57;9.25;;;6.63;;
78989;SDS011;68390;52.130;21.218;2024-02-23T01:55:25;11.20;;;7.53;;
78989;SDS011;68390;52.130;21.218;2024-02-23T01:57:51;12.07;;;6.97;;
78989;SDS011;68390;52.130;21.218;2024-02-23T02:00:18;10.55;;;6.88;;
78989;SDS011;68390;52.130;21.218;2024-02-23T02:02:46;7.57;;;5.78;;
78989;SDS011;68390;52.130;21.218;2024-02-23T02:05:13;10.32;;;6.55;;
78989;SDS011;68390;52.130;21.218;2024-02-23T02:07:39;10.43;;;6.60;;
78989;SDS011;68390;52.130;21.218;2024-02-23T02:10:07;9.35;;;6.53;;
78989;SDS011;68390;52.130;21.218;2024-02-23T02:12:34;9.57;;;6.53;;
78989;SDS011;68390;52.130;21.218;2024-02-23T02:15:00;9.70;;;7.07;;
78989;SDS011;68390;52.130;21.218;2024-02-23T02:17:29;9.43;;;6.28;;
78989;SDS011;68390;52.130;21.218;2024-02-23T02:19:55;7.22;;;5.65;;
78989;SDS011;68390;52.130;21.218;2024-02-23T02:22:23;9.07;;;5.60;;
78989;SDS011;68390;52.130;21.218;2024-02-23T02:24:49;7.68;;;5.60;;
78989;SDS011;68390;52.130;21.218;2024-02-23T02:27:15;13.00;;;5.85;;
78989;SDS011;68390;52.130;21.218;2024-02-23T02:29:41;8.48;;;5.57;;
78989;SDS011;68390;52.130;21.218;2024-02-23T02:32:06;7.60;;;5.40;;
78989;SDS011;68390;52.130;21.218;2024-02-23T02:34:32;8.32;;;5.47;;
78989;SDS011;68390;52.130;21.218;2024-02-23T02:36:58;10.25;;;6.00;;
78989;SDS011;68390;52.130;21.218;2024-02-23T02:39:25;9.35;;;5.40;;
78989;SDS011;68390;52.130;21.218;2024-02-23T02:41:53;8.15;;;5.43;;
78989;SDS011;68390;52.130;21.218;2024-02-23T02:44:18;7.75;;;5.20;;
78989;SDS011;68390;52.130;21.218;2024-02-23T02:46:44;8.32;;;5.70;;
78989;SDS011;68390;52.130;21.218;2024-02-23T02:49:11;7.55;;;5.05;;
78989;SDS011;68390;52.130;21.218;2024-02-23T02:51:37;9.15;;;5.03;;
78989;SDS011;68390;52.130;21.218;2024-02-23T02:54:02;6.60;;;4.95;;
78989;SDS011;68390;52.130;21.218;2024-02-23T02:56:28;7.07;;;5.43;;
78989;SDS011;68390;52.130;21.218;2024-02-23T02:58:54;6.97;;;5.18;;
78989;SDS011;68390;52.130;21.218;2024-02-23T03:01:19;9.57;;;5.55;;
78989;SDS011;68390;52.130;21.218;2024-02-23T03:03:45;7.47;;;4.95;;
78989;SDS011;68390;52.130;21.218;2024-02-23T03:06:10;6.63;;;5.10;;
78989;SDS011;68390;52.130;21.218;2024-02-23T03:08:36;7.50;;;5.40;;
78989;SDS011;68390;52.130;21.218;2024-02-23T03:11:02;8.07;;;5.30;;
78989;SDS011;68390;52.130;21.218;2024-02-23T03:13:28;8.05;;;4.93;;
78989;SDS011;68390;52.130;21.218;2024-02-23T03:15:54;7.95;;;4.85;;
78989;SDS011;68390;52.130;21.218;2024-02-23T03:18:23;7.53;;;4.93;;
78989;SDS011;68390;52.130;21.218;2024-02-23T03:20:51;7.50;;;4.72;;
78989;SDS011;68390;52.130;21.218;2024-02-23T03:23:18;7.20;;;4.80;;
78989;SDS011;68390;52.130;21.218;2024-02-23T03:25:44;8.10;;;5.18;;
78989;SDS011;68390;52.130;21.218;2024-02-23T03:28:09;7.15;;;4.97;;
78989;SDS011;68390;52.130;21.218;2024-02-23T03:30:35;10.35;;;5.00;;
78989;SDS011;68390;52.130;21.218;2024-02-23T03:35:30;7.72;;;5.00;;
78989;SDS011;68390;52.130;21.218;2024-02-23T03:37:56;8.13;;;5.30;;
78989;SDS011;68390;52.130;21.218;2024-02-23T03:40:22;8.10;;;5.20;;
78989;SDS011;68390;52.130;21.218;2024-02-23T03:42:49;7.05;;;4.75;;
78989;SDS011;68390;52.130;21.218;2024-02-23T03:45:15;6.55;;;5.05;;
78989;SDS011;68390;52.130;21.218;2024-02-23T03:47:41;7.18;;;4.88;;
78989;SDS011;68390;52.130;21.218;2024-02-23T03:50:06;5.93;;;5.10;;
78989;SDS011;68390;52.130;21.218;2024-02-23T03:52:33;7.75;;;5.10;;
78989;SDS011;68390;52.130;21.218;2024-02-23T03:54:59;7.13;;;5.10;;
78989;SDS011;68390;52.130;21.218;2024-02-23T03:57:26;7.32;;;5.18;;
78989;SDS011;68390;52.130;21.218;2024-02-23T03:59:52;10.98;;;5.93;;
78989;SDS011;68390;52.130;21.218;2024-02-23T04:02:18;9.50;;;5.93;;
78989;SDS011;68390;52.130;21.218;2024-02-23T04:04:44;10.30;;;5.85;;
78989;SDS011;68390;52.130;21.218;2024-02-23T04:07:10;10.38;;;5.88;;
78989;SDS011;68390;52.130;21.218;2024-02-23T04:09:36;8.43;;;6.20;;
78989;SDS011;68390;52.130;21.218;2024-02-23T04:12:01;8.23;;;5.70;;
78989;SDS011;68390;52.130;21.218;2024-02-23T04:14:27;9.52;;;5.40;;
78989;SDS011;68390;52.130;21.218;2024-02-23T04:16:53;10.10;;;6.28;;
78989;SDS011;68390;52.130;21.218;2024-02-23T04:19:18;9.25;;;6.22;;
78989;SDS011;68390;52.130;21.218;2024-02-23T04:21:47;9.60;;;5.80;;
78989;SDS011;68390;52.130;21.218;2024-02-23T04:24:13;12.35;;;6.30;;
78989;SDS011;68390;52.130;21.218;2024-02-23T04:26:38;7.10;;;5.30;;
78989;SDS011;68390;52.130;21.218;2024-02-23T04:29:04;10.80;;;6.05;;
78989;SDS011;68390;52.130;21.218;2024-02-23T04:31:29;10.80;;;6.45;;
78989;SDS011;68390;52.130;21.218;2024-02-23T04:33:54;7.63;;;5.43;;
78989;SDS011;68390;52.130;21.218;2024-02-23T04:36:20;8.82;;;5.30;;
78989;SDS011;68390;52.130;21.218;2024-02-23T04:38:48;9.75;;;5.60;;
78989;SDS011;68390;52.130;21.218;2024-02-23T04:41:15;9.57;;;5.45;;
78989;SDS011;68390;52.130;21.218;2024-02-23T04:43:47;8.77;;;5.80;;
78989;SDS011;68390;52.130;21.218;2024-02-23T04:46:13;8.48;;;5.72;;
78989;SDS011;68390;52.130;21.218;2024-02-23T04:48:39;8.27;;;5.28;;
78989;SDS011;68390;52.130;21.218;2024-02-23T04:51:06;8.02;;;5.50;;
78989;SDS011;68390;52.130;21.218;2024-02-23T04:56:03;8.98;;;5.70;;
78989;SDS011;68390;52.130;21.218;2024-02-23T04:58:30;8.10;;;5.95;;
78989;SDS011;68390;52.130;21.218;2024-02-23T05:00:55;8.55;;;5.78;;
78989;SDS011;68390;52.130;21.218;2024-02-23T05:03:21;8.13;;;5.35;;
78989;SDS011;68390;52.130;21.218;2024-02-23T05:05:47;8.32;;;5.20;;
78989;SDS011;68390;52.130;21.218;2024-02-23T05:08:22;7.53;;;5.07;;
78989;SDS011;68390;52.130;21.218;2024-02-23T05:10:50;10.23;;;5.78;;
78989;SDS011;68390;52.130;21.218;2024-02-23T05:13:16;7.72;;;4.97;;
78989;SDS011;68390;52.130;21.218;2024-02-23T05:15:42;7.28;;;4.97;;
78989;SDS011;68390;52.130;21.218;2024-02-23T05:18:07;6.65;;;5.25;;
78989;SDS011;68390;52.130;21.218;2024-02-23T05:20:33;7.72;;;5.70;;
78989;SDS011;68390;52.130;21.218;2024-02-23T05:22:59;7.55;;;4.93;;
78989;SDS011;68390;52.130;21.218;2024-02-23T05:25:24;8.63;;;5.10;;
78989;SDS011;68390;52.130;21.218;2024-02-23T05:30:20;7.25;;;5.05;;
78989;SDS011;68390;52.130;21.218;2024-02-23T05:32:45;7.97;;;5.60;;
78989;SDS011;68390;52.130;21.218;2024-02-23T05:35:13;9.35;;;4.90;;
78989;SDS011;68390;52.130;21.218;2024-02-23T05:37:39;7.28;;;4.75;;
78989;SDS011;68390;52.130;21.218;2024-02-23T05:40:06;8.50;;;5.15;;
78989;SDS011;68390;52.130;21.218;2024-02-23T05:42:36;8.40;;;5.68;;
78989;SDS011;68390;52.130;21.218;2024-02-23T05:45:02;7.63;;;5.15;;
78989;SDS011;68390;52.130;21.218;2024-02-23T05:47:30;8.00;;;4.90;;
78989;SDS011;68390;52.130;21.218;2024-02-23T05:49:57;6.78;;;4.65;;
78989;SDS011;68390;52.130;21.218;2024-02-23T05:52:22;7.43;;;4.65;;
78989;SDS011;68390;52.130;21.218;2024-02-23T05:54:49;8.20;;;5.55;;
78989;SDS011;68390;52.130;21.218;2024-02-23T05:57:14;7.85;;;5.10;;
78989;SDS011;68390;52.130;21.218;2024-02-23T05:59:40;7.55;;;5.50;;
78989;SDS011;68390;52.130;21.218;2024-02-23T06:02:06;9.40;;;6.10;;
78989;SDS011;68390;52.130;21.218;2024-02-23T06:04:32;7.32;;;4.90;;
78989;SDS011;68390;52.130;21.218;2024-02-23T06:06:58;8.00;;;4.95;;
78989;SDS011;68390;52.130;21.218;2024-02-23T06:09:24;6.53;;;4.78;;
78989;SDS011;68390;52.130;21.218;2024-02-23T06:11:50;7.70;;;5.10;;
78989;SDS011;68390;52.130;21.218;2024-02-23T06:14:16;7.22;;;4.55;;
78989;SDS011;68390;52.130;21.218;2024-02-23T06:16:42;7.55;;;4.75;;
78989;SDS011;68390;52.130;21.218;2024-02-23T06:19:08;6.22;;;4.53;;
78989;SDS011;68390;52.130;21.218;2024-02-23T06:21:33;9.02;;;5.22;;
78989;SDS011;68390;52.130;21.218;2024-02-23T06:23:59;8.80;;;5.65;;
78989;SDS011;68390;52.130;21.218;2024-02-23T06:26:25;7.30;;;5.25;;
78989;SDS011;68390;52.130;21.218;2024-02-23T06:28:51;7.68;;;5.28;;
78989;SDS011;68390;52.130;21.218;2024-02-23T06:31:16;7.53;;;4.97;;
78989;SDS011;68390;52.130;21.218;2024-02-23T06:33:42;7.78;;;5.32;;
78989;SDS011;68390;52.130;21.218;2024-02-23T06:36:09;9.32;;;7.05;;
78989;SDS011;68390;52.130;21.218;2024-02-23T06:38:35;7.45;;;4.93;;
78989;SDS011;68390;52.130;21.218;2024-02-23T06:41:01;6.90;;;4.68;;
78989;SDS011;68390;52.130;21.218;2024-02-23T06:43:27;7.03;;;4.90;;
78989;SDS011;68390;52.130;21.218;2024-02-23T06:45:53;6.72;;;4.57;;
78989;SDS011;68390;52.130;21.218;2024-02-23T06:48:19;6.82;;;4.75;;
78989;SDS011;68390;52.130;21.218;2024-02-23T06:50:45;7.57;;;4.93;;
78989;SDS011;68390;52.130;21.218;2024-02-23T06:53:12;7.45;;;5.10;;
78989;SDS011;68390;52.130;21.218;2024-02-23T06:55:38;7.60;;;4.65;;
78989;SDS011;68390;52.130;21.218;2024-02-23T06:58:03;7.35;;;4.57;;
78989;SDS011;68390;52.130;21.218;2024-02-23T07:00:33;7.15;;;4.85;;
78989;SDS011;68390;52.130;21.218;2024-02-23T07:03:01;6.13;;;4.85;;
78989;SDS011;68390;52.130;21.218;2024-02-23T07:05:35;9.15;;;6.07;;
78989;SDS011;68390;52.130;21.218;2024-02-23T07:08:01;6.93;;;4.75;;
78989;SDS011;68390;52.130;21.218;2024-02-23T07:10:28;6.15;;;4.50;;
78989;SDS011;68390;52.130;21.218;2024-02-23T07:12:54;6.53;;;4.53;;
78989;SDS011;68390;52.130;21.218;2024-02-23T07:15:22;8.27;;;5.10;;
78989;SDS011;68390;52.130;21.218;2024-02-23T07:17:49;7.43;;;4.75;;
78989;SDS011;68390;52.130;21.218;2024-02-23T07:20:15;7.20;;;4.85;;
78989;SDS011;68390;52.130;21.218;2024-02-23T07:22:44;8.30;;;4.88;;
78989;SDS011;68390;52.130;21.218;2024-02-23T07:25:16;7.75;;;5.13;;
78989;SDS011;68390;52.130;21.218;2024-02-23T07:27:43;7.80;;;5.10;;
78989;SDS011;68390;52.130;21.218;2024-02-23T07:30:09;8.10;;;4.88;;
78989;SDS011;68390;52.130;21.218;2024-02-23T07:32:35;7.95;;;4.80;;
78989;SDS011;68390;52.130;21.218;2024-02-23T07:35:01;10.95;;;5.72;;
78989;SDS011;68390;52.130;21.218;2024-02-23T07:37:26;7.85;;;4.80;;
78989;SDS011;68390;52.130;21.218;2024-02-23T07:39:52;8.63;;;5.05;;
78989;SDS011;68390;52.130;21.218;2024-02-23T07:42:18;9.65;;;5.25;;
78989;SDS011;68390;52.130;21.218;2024-02-23T07:44:44;6.68;;;4.65;;
78989;SDS011;68390;52.130;21.218;2024-02-23T07:47:09;7.75;;;4.90;;
78989;SDS011;68390;52.130;21.218;2024-02-23T07:49:36;7.03;;;4.70;;
78989;SDS011;68390;52.130;21.218;2024-02-23T07:52:01;8.23;;;5.53;;
78989;SDS011;68390;52.130;21.218;2024-02-23T07:54:27;10.45;;;5.78;;
78989;SDS011;68390;52.130;21.218;2024-02-23T07:56:53;9.13;;;5.43;;
78989;SDS011;68390;52.130;21.218;2024-02-23T07:59:18;7.63;;;5.15;;
78989;SDS011;68390;52.130;21.218;2024-02-23T08:01:43;8.35;;;5.40;;
78989;SDS011;68390;52.130;21.218;2024-02-23T08:04:09;6.82;;;5.30;;
78989;SDS011;68390;52.130;21.218;2024-02-23T08:06:34;7.97;;;5.28;;
78989;SDS011;68390;52.130;21.218;2024-02-23T08:08:59;6.55;;;4.90;;
78989;SDS011;68390;52.130;21.218;2024-02-23T08:11:25;7.80;;;4.40;;
78989;SDS011;68390;52.130;21.218;2024-02-23T08:13:50;8.40;;;5.22;;
78989;SDS011;68390;52.130;21.218;2024-02-23T08:16:16;6.68;;;4.63;;
78989;SDS011;68390;52.130;21.218;2024-02-23T08:18:42;9.27;;;5.22;;
78989;SDS011;68390;52.130;21.218;2024-02-23T08:21:08;8.43;;;5.05;;
78989;SDS011;68390;52.130;21.218;2024-02-23T08:23:35;9.00;;;4.70;;
78989;SDS011;68390;52.130;21.218;2024-02-23T08:26:01;10.35;;;4.88;;
78989;SDS011;68390;52.130;21.218;2024-02-23T08:28:26;8.70;;;4.57;;
78989;SDS011;68390;52.130;21.218;2024-02-23T08:30:52;6.35;;;4.40;;
78989;SDS011;68390;52.130;21.218;2024-02-23T08:33:18;7.93;;;4.72;;
78989;SDS011;68390;52.130;21.218;2024-02-23T08:35:43;7.45;;;4.60;;
78989;SDS011;68390;52.130;21.218;2024-02-23T08:38:09;7.35;;;4.88;;
78989;SDS011;68390;52.130;21.218;2024-02-23T08:40:35;8.32;;;4.65;;
78989;SDS011;68390;52.130;21.218;2024-02-23T08:43:00;8.63;;;4.68;;
78989;SDS011;68390;52.130;21.218;2024-02-23T08:45:26;8.50;;;4.35;;
78989;SDS011;68390;52.130;21.218;2024-02-23T08:47:51;6.80;;;4.13;;
78989;SDS011;68390;52.130;21.218;2024-02-23T08:50:17;7.20;;;4.25;;
78989;SDS011;68390;52.130;21.218;2024-02-23T08:52:42;6.20;;;4.28;;
78989;SDS011;68390;52.130;21.218;2024-02-23T08:55:07;7.82;;;4.70;;
78989;SDS011;68390;52.130;21.218;2024-02-23T08:57:33;8.52;;;5.28;;
78989;SDS011;68390;52.130;21.218;2024-02-23T08:59:59;6.97;;;4.30;;
78989;SDS011;68390;52.130;21.218;2024-02-23T09:02:24;9.48;;;4.53;;
78989;SDS011;68390;52.130;21.218;2024-02-23T09:04:50;7.15;;;4.28;;
78989;SDS011;68390;52.130;21.218;2024-02-23T09:07:15;6.47;;;4.32;;
78989;SDS011;68390;52.130;21.218;2024-02-23T09:09:43;5.97;;;4.18;;
78989;SDS011;68390;52.130;21.218;2024-02-23T09:12:08;9.55;;;4.85;;
78989;SDS011;68390;52.130;21.218;2024-02-23T09:14:35;6.63;;;3.97;;
78989;SDS011;68390;52.130;21.218;2024-02-23T09:17:02;8.68;;;4.95;;
78989;SDS011;68390;52.130;21.218;2024-02-23T09:19:29;8.13;;;4.28;;
78989;SDS011;68390;52.130;21.218;2024-02-23T09:21:55;8.57;;;4.88;;
78989;SDS011;68390;52.130;21.218;2024-02-23T09:24:20;6.20;;;4.15;;
78989;SDS011;68390;52.130;21.218;2024-02-23T09:26:46;6.75;;;4.57;;
78989;SDS011;68390;52.130;21.218;2024-02-23T09:29:12;7.85;;;4.05;;
78989;SDS011;68390;52.130;21.218;2024-02-23T09:31:38;6.43;;;4.13;;
78989;SDS011;68390;52.130;21.218;2024-02-23T09:34:03;5.63;;;3.80;;
78989;SDS011;68390;52.130;21.218;2024-02-23T09:36:28;6.78;;;4.03;;
78989;SDS011;68390;52.130;21.218;2024-02-23T09:38:55;7.05;;;4.60;;
78989;SDS011;68390;52.130;21.218;2024-02-23T09:41:21;7.55;;;4.53;;
78989;SDS011;68390;52.130;21.218;2024-02-23T09:43:47;7.40;;;4.22;;
78989;SDS011;68390;52.130;21.218;2024-02-23T09:46:17;8.68;;;4.55;;
78989;SDS011;68390;52.130;21.218;2024-02-23T09:48:43;5.72;;;4.07;;
78989;SDS011;68390;52.130;21.218;2024-02-23T09:51:10;7.07;;;4.25;;
78989;SDS011;68390;52.130;21.218;2024-02-23T09:53:38;6.43;;;4.40;;
78989;SDS011;68390;52.130;21.218;2024-02-23T09:56:04;6.35;;;4.07;;
78989;SDS011;68390;52.130;21.218;2024-02-23T09:58:31;5.72;;;4.03;;
78989;SDS011;68390;52.130;21.218;2024-02-23T10:00:58;7.75;;;4.40;;
78989;SDS011;68390;52.130;21.218;2024-02-23T10:03:24;7.15;;;4.70;;
78989;SDS011;68390;52.130;21.218;2024-02-23T10:05:53;7.07;;;4.75;;
78989;SDS011;68390;52.130;21.218;2024-02-23T10:08:19;6.65;;;4.68;;
78989;SDS011;68390;52.130;21.218;2024-02-23T10:10:47;7.00;;;4.30;;
78989;SDS011;68390;52.130;21.218;2024-02-23T10:13:33;6.97;;;4.60;;
78989;SDS011;68390;52.130;21.218;2024-02-23T10:15:59;8.07;;;5.07;;
78989;SDS011;68390;52.130;21.218;2024-02-23T10:18:25;7.85;;;4.85;;
78989;SDS011;68390;52.130;21.218;2024-02-23T10:20:50;7.38;;;4.60;;
78989;SDS011;68390;52.130;21.218;2024-02-23T10:23:17;6.28;;;4.28;;
78989;SDS011;68390;52.130;21.218;2024-02-23T10:25:45;7.65;;;5.13;;
78989;SDS011;68390;52.130;21.218;2024-02-23T10:28:10;6.95;;;4.30;;
78989;SDS011;68390;52.130;21.218;2024-02-23T10:30:36;7.03;;;4.90;;
78989;SDS011;68390;52.130;21.218;2024-02-23T10:33:03;6.60;;;4.90;;
78989;SDS011;68390;52.130;21.218;2024-02-23T10:35:30;6.70;;;4.90;;
78989;SDS011;68390;52.130;21.218;2024-02-23T10:37:57;6.82;;;4.72;;
78989;SDS011;68390;52.130;21.218;2024-02-23T10:40:23;8.20;;;5.25;;
78989;SDS011;68390;52.130;21.218;2024-02-23T10:42:51;6.53;;;4.53;;
78989;SDS011;68390;52.130;21.218;2024-02-23T10:45:22;8.90;;;4.70;;
78989;SDS011;68390;52.130;21.218;2024-02-23T10:47:47;7.38;;;4.78;;
78989;SDS011;68390;52.130;21.218;2024-02-23T10:50:14;9.18;;;5.32;;
78989;SDS011;68390;52.130;21.218;2024-02-23T10:52:43;8.82;;;4.28;;
78989;SDS011;68390;52.130;21.218;2024-02-23T10:55:09;7.90;;;4.93;;
78989;SDS011;68390;52.130;21.218;2024-02-23T10:57:35;7.28;;;4.25;;
78989;SDS011;68390;52.130;21.218;2024-02-23T11:00:02;8.13;;;5.30;;
78989;SDS011;68390;52.130;21.218;2024-02-23T11:02:34;7.40;;;5.13;;
78989;SDS011;68390;52.130;21.218;2024-02-23T11:05:03;8.68;;;4.63;;
78989;SDS011;68390;52.130;21.218;2024-02-23T11:07:37;8.45;;;5.68;;
78989;SDS011;68390;52.130;21.218;2024-02-23T11:10:03;7.40;;;5.28;;
78989;SDS011;68390;52.130;21.218;2024-02-23T11:12:29;7.90;;;4.93;;
78989;SDS011;68390;52.130;21.218;2024-02-23T11:14:58;7.45;;;5.45;;
78989;SDS011;68390;52.130;21.218;2024-02-23T11:17:29;10.38;;;5.35;;
78989;SDS011;68390;52.130;21.218;2024-02-23T11:19:56;9.23;;;5.32;;
78989;SDS011;68390;52.130;21.218;2024-02-23T11:22:31;7.10;;;5.70;;
78989;SDS011;68390;52.130;21.218;2024-02-23T11:25:04;8.98;;;5.10;;
78989;SDS011;68390;52.130;21.218;2024-02-23T11:27:33;7.53;;;5.07;;
78989;SDS011;68390;52.130;21.218;2024-02-23T11:30:03;7.28;;;5.30;;
78989;SDS011;68390;52.130;21.218;2024-02-23T11:32:41;9.30;;;5.45;;
78989;SDS011;68390;52.130;21.218;2024-02-23T11:35:08;9.25;;;5.80;;
78989;SDS011;68390;52.130;21.218;2024-02-23T11:40:12;8.38;;;5.43;;
78989;SDS011;68390;52.130;21.218;2024-02-23T11:42:38;8.73;;;5.55;;
78989;SDS011;68390;52.130;21.218;2024-02-23T11:45:06;8.13;;;5.20;;
78989;SDS011;68390;52.130;21.218;2024-02-23T11:47:31;10.45;;;6.10;;
78989;SDS011;68390;52.130;21.218;2024-02-23T11:49:57;8.88;;;5.82;;
78989;SDS011;68390;52.130;21.218;2024-02-23T11:52:22;9.07;;;5.68;;
78989;SDS011;68390;52.130;21.218;2024-02-23T11:54:48;11.85;;;5.82;;
78989;SDS011;68390;52.130;21.218;2024-02-23T11:57:13;13.02;;;6.80;;
78989;SDS011;68390;52.130;21.218;2024-02-23T11:59:39;8.23;;;5.80;;
78989;SDS011;68390;52.130;21.218;2024-02-23T12:02:06;9.30;;;6.07;;
78989;SDS011;68390;52.130;21.218;2024-02-23T12:04:32;10.57;;;6.30;;
78989;SDS011;68390;52.130;21.218;2024-02-23T12:06:58;10.00;;;5.72;;
78989;SDS011;68390;52.130;21.218;2024-02-23T12:09:23;9.32;;;5.85;;
78989;SDS011;68390;52.130;21.218;2024-02-23T12:11:49;9.35;;;5.82;;
78989;SDS011;68390;52.130;21.218;2024-02-23T12:14:15;9.50;;;6.35;;
78989;SDS011;68390;52.130;21.218;2024-02-23T12:16:41;10.07;;;6.85;;
78989;SDS011;68390;52.130;21.218;2024-02-23T12:19:07;20.60;;;11.65;;
78989;SDS011;68390;52.130;21.218;2024-02-23T12:21:34;9.13;;;5.72;;
78989;SDS011;68390;52.130;21.218;2024-02-23T12:24:03;11.05;;;6.47;;
78989;SDS011;68390;52.130;21.218;2024-02-23T12:26:29;10.20;;;6.75;;
78989;SDS011;68390;52.130;21.218;2024-02-23T12:28:59;9.30;;;6.43;;
78989;SDS011;68390;52.130;21.218;2024-02-23T12:31:26;8.88;;;5.90;;
78989;SDS011;68390;52.130;21.218;2024-02-23T12:33:51;9.20;;;6.10;;
78989;SDS011;68390;52.130;21.218;2024-02-23T12:36:17;10.02;;;5.68;;
78989;SDS011;68390;52.130;21.218;2024-02-23T12:38:43;10.40;;;5.88;;
78989;SDS011;68390;52.130;21.218;2024-02-23T12:41:08;8.85;;;5.85;;
78989;SDS011;68390;52.130;21.218;2024-02-23T12:43:34;7.78;;;5.63;;
78989;SDS011;68390;52.130;21.218;2024-02-23T12:46:00;8.50;;;5.93;;
78989;SDS011;68390;52.130;21.218;2024-02-23T12:48:28;9.70;;;6.90;;
78989;SDS011;68390;52.130;21.218;2024-02-23T12:50:53;9.35;;;5.85;;
78989;SDS011;68390;52.130;21.218;2024-02-23T12:53:38;7.65;;;5.72;;
78989;SDS011;68390;52.130;21.218;2024-02-23T12:56:08;9.23;;;6.38;;
78989;SDS011;68390;52.130;21.218;2024-02-23T12:58:36;10.40;;;6.85;;
78989;SDS011;68390;52.130;21.218;2024-02-23T13:01:03;11.95;;;6.93;;
78989;SDS011;68390;52.130;21.218;2024-02-23T13:03:28;9.38;;;6.97;;
78989;SDS011;68390;52.130;21.218;2024-02-23T13:05:54;8.65;;;5.93;;
78989;SDS011;68390;52.130;21.218;2024-02-23T13:08:21;11.90;;;7.57;;
78989;SDS011;68390;52.130;21.218;2024-02-23T13:10:47;9.70;;;6.25;;
78989;SDS011;68390;52.130;21.218;2024-02-23T13:13:13;13.77;;;7.00;;
78989;SDS011;68390;52.130;21.218;2024-02-23T13:15:42;10.68;;;6.78;;
78989;SDS011;68390;52.130;21.218;2024-02-23T13:18:11;9.80;;;7.07;;
78989;SDS011;68390;52.130;21.218;2024-02-23T13:20:37;12.20;;;7.50;;
78989;SDS011;68390;52.130;21.218;2024-02-23T13:23:04;9.55;;;7.15;;
78989;SDS011;68390;52.130;21.218;2024-02-23T13:25:32;8.82;;;6.22;;
78989;SDS011;68390;52.130;21.218;2024-02-23T13:27:58;9.95;;;6.75;;
78989;SDS011;68390;52.130;21.218;2024-02-23T13:30:23;9.95;;;6.90;;
78989;SDS011;68390;52.130;21.218;2024-02-23T13:32:48;10.38;;;7.13;;
78989;SDS011;68390;52.130;21.218;2024-02-23T13:35:14;11.00;;;6.43;;
78989;SDS011;68390;52.130;21.218;2024-02-23T13:37:40;10.55;;;6.93;;
78989;SDS011;68390;52.130;21.218;2024-02-23T13:40:08;9.68;;;6.53;;
78989;SDS011;68390;52.130;21.218;2024-02-23T13:42:34;8.38;;;6.15;;
78989;SDS011;68390;52.130;21.218;2024-02-23T13:45:00;10.65;;;7.50;;
78989;SDS011;68390;52.130;21.218;2024-02-23T13:47:25;9.05;;;6.13;;
78989;SDS011;68390;52.130;21.218;2024-02-23T13:49:51;11.73;;;8.18;;
78989;SDS011;68390;52.130;21.218;2024-02-23T13:52:16;11.45;;;8.57;;
78989;SDS011;68390;52.130;21.218;2024-02-23T13:54:41;12.88;;;7.82;;
78989;SDS011;68390;52.130;21.218;2024-02-23T13:57:08;12.25;;;8.98;;
78989;SDS011;68390;52.130;21.218;2024-02-23T13:59:33;12.50;;;8.20;;
78989;SDS011;68390;52.130;21.218;2024-02-23T14:01:59;11.73;;;7.65;;
78989;SDS011;68390;52.130;21.218;2024-02-23T14:04:25;13.27;;;9.13;;
78989;SDS011;68390;52.130;21.218;2024-02-23T14:06:51;12.05;;;7.95;;
78989;SDS011;68390;52.130;21.218;2024-02-23T14:09:16;13.20;;;8.98;;
78989;SDS011;68390;52.130;21.218;2024-02-23T14:11:41;12.60;;;8.15;;
78989;SDS011;68390;52.130;21.218;2024-02-23T14:14:07;14.82;;;8.95;;
78989;SDS011;68390;52.130;21.218;2024-02-23T14:16:33;13.30;;;9.57;;
78989;SDS011;68390;52.130;21.218;2024-02-23T14:18:58;14.00;;;8.32;;
78989;SDS011;68390;52.130;21.218;2024-02-23T14:21:24;15.93;;;9.52;;
78989;SDS011;68390;52.130;21.218;2024-02-23T14:23:50;17.15;;;9.18;;
78989;SDS011;68390;52.130;21.218;2024-02-23T14:26:16;10.13;;;7.38;;
78989;SDS011;68390;52.130;21.218;2024-02-23T14:28:41;14.35;;;9.50;;
78989;SDS011;68390;52.130;21.218;2024-02-23T14:31:07;11.52;;;8.48;;
78989;SDS011;68390;52.130;21.218;2024-02-23T14:33:32;13.50;;;7.90;;
78989;SDS011;68390;52.130;21.218;2024-02-23T14:35:58;10.18;;;7.00;;